createdAt,value
2022-11-03T00:02:10.078Z,20.58
2022-11-03T00:04:36.972Z,20.23
2022-11-03T00:07:03.789Z,21.92
2022-11-03T00:09:31.812Z,33.85
2022-11-03T00:11:59.050Z,22.48
2022-11-03T00:14:25.876Z,38.08
2022-11-03T00:16:52.736Z,59.97
2022-11-03T00:19:19.799Z,49.67
2022-11-03T00:21:46.849Z,66.25
2022-11-03T00:24:14.122Z,56.85
2022-11-03T00:26:40.955Z,50.33
2022-11-03T00:29:16.927Z,62.67
2022-11-03T00:31:45.250Z,75.95
2022-11-03T00:34:12.823Z,84.68
2022-11-03T00:36:44.444Z,82.68
2022-11-03T00:39:12.081Z,80.80
2022-11-03T00:41:39.894Z,87.32
2022-11-03T00:44:07.081Z,87.63
2022-11-03T00:46:36.635Z,78.00
2022-11-03T00:49:05.539Z,83.55
2022-11-03T00:51:34.492Z,84.13
2022-11-03T00:54:03.254Z,70.60
2022-11-03T00:56:32.254Z,74.22
2022-11-03T00:59:00.452Z,60.92
2022-11-03T01:01:39.250Z,58.53
2022-11-03T01:04:28.742Z,42.13
2022-11-03T01:06:58.464Z,40.33
2022-11-03T01:09:31.322Z,42.42
2022-11-03T01:12:03.115Z,33.20
2022-11-03T01:14:39.734Z,35.47
2022-11-03T01:17:08.754Z,33.72
2022-11-03T01:19:35.602Z,29.67
2022-11-03T01:22:06.357Z,25.00
2022-11-03T01:24:36.516Z,23.55
2022-11-03T01:27:03.532Z,20.08
2022-11-03T01:29:30.287Z,21.98
2022-11-03T01:31:58.082Z,19.58
2022-11-03T01:34:24.943Z,18.80
2022-11-03T01:36:51.775Z,18.83
2022-11-03T01:39:19.704Z,16.25
2022-11-03T01:41:48.854Z,16.65
2022-11-03T01:44:15.599Z,16.88
2022-11-03T01:46:42.314Z,11.60
2022-11-03T01:49:16.690Z,15.40
2022-11-03T01:51:46.813Z,14.07
2022-11-03T01:54:18.471Z,16.92
2022-11-03T01:56:48.381Z,13.88
2022-11-03T01:59:16.775Z,15.25
2022-11-03T02:01:45.637Z,14.60
2022-11-03T02:04:23.007Z,17.27
2022-11-03T02:06:57.888Z,12.65
2022-11-03T02:09:24.961Z,12.13
2022-11-03T02:12:08.131Z,12.65
2022-11-03T02:14:39.453Z,14.77
2022-11-03T02:17:12.502Z,14.43
2022-11-03T02:19:46.656Z,13.30
2022-11-03T02:22:36.119Z,16.13
2022-11-03T02:25:14.395Z,14.02
2022-11-03T02:27:41.569Z,15.00
2022-11-03T02:30:09.000Z,16.60
2022-11-03T02:33:01.700Z,13.98
2022-11-03T02:35:31.502Z,12.35
2022-11-03T02:38:03.573Z,14.82
2022-11-03T02:40:34.549Z,11.38
2022-11-03T02:43:03.580Z,13.18
2022-11-03T02:45:31.502Z,10.88
2022-11-03T02:48:01.796Z,12.15
2022-11-03T02:50:30.147Z,13.73
2022-11-03T02:52:57.839Z,12.20
2022-11-03T02:55:33.150Z,18.65
2022-11-03T02:58:06.012Z,14.80
2022-11-03T03:00:40.297Z,15.48
2022-11-03T03:03:22.919Z,14.50
2022-11-03T03:26:08.091Z,20.70
2022-11-03T03:28:47.832Z,21.65
2022-11-03T03:31:17.214Z,18.60
2022-11-03T03:33:47.983Z,19.13
2022-11-03T03:36:18.991Z,19.88
2022-11-03T03:38:50.903Z,20.08
2022-11-03T03:41:22.228Z,22.35
2022-11-03T03:43:55.731Z,21.02
2022-11-03T03:46:24.987Z,19.27
2022-11-03T03:48:51.878Z,19.35
2022-11-03T03:51:22.806Z,19.90
2022-11-03T03:53:53.493Z,18.00
2022-11-03T03:56:50.791Z,18.27
2022-11-03T03:59:17.628Z,18.17
2022-11-03T04:01:44.506Z,25.10
2022-11-03T04:04:11.363Z,61.38
2022-11-03T04:06:38.270Z,23.63
2022-11-03T04:09:05.148Z,22.95
2022-11-03T04:11:50.489Z,18.25
2022-11-03T04:14:35.848Z,16.33
2022-11-03T04:17:21.230Z,13.40
2022-11-03T04:20:06.696Z,18.65
2022-11-03T04:22:34.239Z,16.77
2022-11-03T04:25:01.196Z,15.25
2022-11-03T04:27:37.075Z,18.55
2022-11-03T04:30:18.284Z,17.65
2022-11-03T04:32:47.524Z,16.92
2022-11-03T04:35:22.314Z,64.00
2022-11-03T04:37:54.621Z,22.52
2022-11-03T04:40:21.603Z,24.35
2022-11-03T04:42:48.699Z,27.50
2022-11-03T04:45:30.198Z,21.85
2022-11-03T04:47:59.438Z,20.00
2022-11-03T04:50:26.578Z,18.98
2022-11-03T04:52:58.634Z,16.40
2022-11-03T04:55:26.692Z,17.17
2022-11-03T04:58:10.798Z,23.42
2022-11-03T05:00:37.736Z,25.63
2022-11-03T05:03:04.841Z,22.48
2022-11-03T05:05:31.680Z,113.75
2022-11-03T05:07:59.363Z,26.25
2022-11-03T05:10:29.376Z,17.77
2022-11-03T05:12:57.796Z,23.40
2022-11-03T05:15:43.895Z,21.27
2022-11-03T05:18:24.851Z,21.15
2022-11-03T05:20:58.290Z,21.23
2022-11-03T05:23:29.763Z,25.13
2022-11-03T05:25:58.514Z,24.67
2022-11-03T05:28:35.707Z,21.95
2022-11-03T05:31:14.044Z,23.17
2022-11-03T05:33:41.160Z,21.27
2022-11-03T05:36:19.576Z,24.65
2022-11-03T05:38:46.617Z,20.98
2022-11-03T05:41:22.924Z,21.25
2022-11-03T05:44:02.359Z,18.13
2022-11-03T05:46:35.403Z,20.20
2022-11-03T05:49:04.091Z,24.52
2022-11-03T05:51:43.782Z,30.70
2022-11-03T05:54:21.096Z,22.35
2022-11-03T05:56:48.336Z,22.70
2022-11-03T05:59:20.637Z,22.20
2022-11-03T06:01:47.711Z,24.15
2022-11-03T06:04:24.991Z,24.30
2022-11-03T06:06:59.424Z,24.30
2022-11-03T06:09:27.430Z,19.45
2022-11-03T06:11:57.390Z,24.90
2022-11-03T06:14:26.118Z,23.33
2022-11-03T06:16:57.073Z,22.27
2022-11-03T06:19:32.656Z,21.40
2022-11-03T06:22:18.293Z,19.48
2022-11-03T06:24:45.971Z,18.83
2022-11-03T06:27:16.453Z,19.17
2022-11-03T06:29:49.666Z,28.27
2022-11-03T06:32:16.790Z,25.40
2022-11-03T06:34:45.375Z,29.23
2022-11-03T06:37:34.837Z,19.63
2022-11-03T06:40:10.577Z,24.67
2022-11-03T06:42:41.729Z,18.38
2022-11-03T06:45:22.609Z,24.35
2022-11-03T06:47:50.750Z,20.55
2022-11-03T06:50:22.621Z,24.85
2022-11-03T06:52:50.101Z,23.02
2022-11-03T06:55:26.605Z,16.45
2022-11-03T06:57:59.248Z,15.93
2022-11-03T07:00:38.570Z,18.40
2022-11-03T07:03:27.350Z,22.73
2022-11-03T07:06:01.969Z,19.67
2022-11-03T07:08:35.733Z,20.15
2022-11-03T07:13:41.783Z,33.53
2022-11-03T07:16:25.500Z,22.85
2022-11-03T07:18:52.384Z,23.80
2022-11-03T07:21:29.079Z,23.02
2022-11-03T07:23:59.419Z,19.00
2022-11-03T07:26:27.296Z,23.88
2022-11-03T07:28:54.981Z,27.30
2022-11-03T07:31:26.660Z,24.27
2022-11-03T07:33:59.660Z,23.38
2022-11-03T07:36:31.109Z,24.17
2022-11-03T07:39:01.113Z,21.35
2022-11-03T07:41:34.260Z,21.70
2022-11-03T07:44:02.408Z,22.02
2022-11-03T07:46:29.516Z,22.45
2022-11-03T07:49:02.866Z,17.38
2022-11-03T07:51:35.098Z,19.33
2022-11-03T07:54:37.269Z,22.40
2022-11-03T07:57:05.801Z,16.15
2022-11-03T07:59:36.772Z,17.17
2022-11-03T08:02:32.449Z,24.40
2022-11-03T08:05:00.392Z,22.60
2022-11-03T08:07:31.636Z,19.67
2022-11-03T08:09:58.897Z,20.23
2022-11-03T08:12:25.743Z,18.27
2022-11-03T08:14:52.640Z,22.75
2022-11-03T08:17:19.428Z,18.00
2022-11-03T08:19:46.313Z,17.80
2022-11-03T08:22:13.320Z,18.92
2022-11-03T08:24:40.151Z,17.60
2022-11-03T08:27:07.057Z,14.07
2022-11-03T08:29:33.944Z,17.60
2022-11-03T08:32:00.916Z,20.27
2022-11-03T08:34:27.712Z,20.27
2022-11-03T08:36:54.541Z,15.02
2022-11-03T08:39:21.370Z,15.10
2022-11-03T08:41:48.144Z,12.18
2022-11-03T08:44:15.013Z,15.20
2022-11-03T08:46:41.852Z,12.70
2022-11-03T08:49:08.680Z,13.70
2022-11-03T08:51:37.878Z,15.55
2022-11-03T08:54:08.311Z,12.02
2022-11-03T08:56:35.187Z,12.75
2022-11-03T08:59:02.038Z,13.13
2022-11-03T09:01:29.358Z,13.23
2022-11-03T09:03:56.385Z,13.75
2022-11-03T09:06:23.346Z,11.27
2022-11-03T09:11:37.082Z,14.85
2022-11-03T09:14:04.104Z,16.30
2022-11-03T09:16:30.883Z,13.35
2022-11-03T09:18:57.784Z,15.77
2022-11-03T09:21:24.530Z,14.63
2022-11-03T09:23:51.500Z,12.18
2022-11-03T09:26:19.085Z,13.10
2022-11-03T09:28:46.116Z,15.98
2022-11-03T09:31:13.066Z,13.00
2022-11-03T09:33:39.936Z,13.45
2022-11-03T09:36:07.038Z,13.65
2022-11-03T09:38:33.864Z,12.50
2022-11-03T09:41:01.018Z,11.32
2022-11-03T09:43:27.908Z,14.05
2022-11-03T09:45:54.736Z,10.85
2022-11-03T09:48:21.626Z,10.43
2022-11-03T09:50:53.014Z,10.30
2022-11-03T09:53:20.806Z,11.63
2022-11-03T09:55:47.679Z,11.13
2022-11-03T09:58:16.401Z,11.18
2022-11-03T10:00:44.318Z,10.98
2022-11-03T10:03:13.473Z,10.57
2022-11-03T10:05:42.303Z,11.23
2022-11-03T10:08:35.558Z,10.95
2022-11-03T10:11:05.360Z,11.40
2022-11-03T10:13:39.348Z,10.70
2022-11-03T10:16:09.970Z,11.68
2022-11-03T10:18:37.556Z,9.38
2022-11-03T10:21:07.256Z,16.90
2022-11-03T10:23:34.158Z,17.48
2022-11-03T10:26:13.404Z,12.32
2022-11-03T10:28:40.568Z,11.07
2022-11-03T10:31:20.239Z,12.55
2022-11-03T10:33:55.602Z,14.02
2022-11-03T10:36:23.721Z,13.73
2022-11-03T10:38:50.791Z,10.15
2022-11-03T10:41:19.163Z,12.88
2022-11-03T10:44:20.467Z,13.55
2022-11-03T10:46:59.549Z,10.15
2022-11-03T10:49:32.237Z,10.98
2022-11-03T10:52:22.617Z,12.55
2022-11-03T10:54:56.422Z,10.63
2022-11-03T10:59:53.777Z,8.70
2022-11-03T11:02:24.651Z,14.55
2022-11-03T11:04:59.413Z,11.35
2022-11-03T11:07:46.748Z,10.45
2022-11-03T11:10:13.618Z,11.50
2022-11-03T11:13:00.107Z,11.13
2022-11-03T11:15:40.809Z,9.15
2022-11-03T11:18:08.225Z,9.73
2022-11-03T11:20:41.841Z,8.95
2022-11-03T11:23:27.010Z,10.75
2022-11-03T11:26:09.258Z,13.85
2022-11-03T11:28:37.796Z,13.77
2022-11-03T11:31:22.677Z,11.07
2022-11-03T11:33:50.003Z,9.95
2022-11-03T11:36:25.102Z,11.05
2022-11-03T11:38:52.456Z,11.35
2022-11-03T11:41:20.944Z,11.38
2022-11-03T11:43:47.763Z,11.70
2022-11-03T11:46:24.012Z,13.52
2022-11-03T11:49:16.831Z,13.05
2022-11-03T11:51:43.631Z,10.45
2022-11-03T11:54:19.941Z,13.25
2022-11-03T11:56:49.036Z,12.45
2022-11-03T11:59:24.228Z,11.43
2022-11-03T12:01:54.606Z,10.13
2022-11-03T12:04:25.614Z,14.00
2022-11-03T12:06:52.462Z,9.63
2022-11-03T12:09:21.912Z,15.35
2022-11-03T12:11:56.428Z,13.27
2022-11-03T12:14:23.579Z,11.90
2022-11-03T12:16:51.232Z,13.32
2022-11-03T12:19:37.980Z,12.57
2022-11-03T12:22:07.444Z,12.75
2022-11-03T12:24:58.419Z,14.65
2022-11-03T12:27:25.201Z,14.25
2022-11-03T12:29:59.583Z,11.25
2022-11-03T12:32:33.605Z,14.93
2022-11-03T12:35:08.208Z,15.85
2022-11-03T12:37:35.619Z,13.43
2022-11-03T12:40:02.573Z,14.77
2022-11-03T12:42:29.538Z,14.13
2022-11-03T12:44:56.426Z,12.30
2022-11-03T12:47:23.398Z,18.58
2022-11-03T12:49:50.247Z,16.80
2022-11-03T12:52:17.088Z,17.75
2022-11-03T12:54:44.545Z,14.82
2022-11-03T12:57:11.428Z,15.73
2022-11-03T12:59:38.421Z,14.10
2022-11-03T13:02:05.678Z,15.85
2022-11-03T13:04:32.593Z,14.52
2022-11-03T13:06:59.480Z,13.85
2022-11-03T13:09:26.320Z,14.93
2022-11-03T13:12:11.795Z,14.48
2022-11-03T13:14:38.671Z,13.23
2022-11-03T13:17:05.515Z,13.40
2022-11-03T13:19:32.404Z,13.15
2022-11-03T13:21:59.255Z,15.73
2022-11-03T13:24:26.111Z,14.60
2022-11-03T13:26:52.994Z,15.38
2022-11-03T13:29:19.896Z,15.50
2022-11-03T13:31:46.739Z,14.93
2022-11-03T13:34:13.541Z,14.05
2022-11-03T13:36:40.581Z,18.67
2022-11-03T13:39:07.433Z,16.33
2022-11-03T13:41:34.263Z,15.10
2022-11-03T13:44:01.139Z,17.60
2022-11-03T13:46:27.970Z,15.60
2022-11-03T13:51:42.052Z,16.83
2022-11-03T13:59:42.883Z,19.23
2022-11-03T14:04:57.661Z,14.02
2022-11-03T14:07:24.501Z,15.30
2022-11-03T14:09:51.381Z,14.98
2022-11-03T14:12:34.843Z,14.45
2022-11-03T14:15:05.686Z,14.35
2022-11-03T14:17:32.931Z,16.23
2022-11-03T14:20:04.160Z,13.80
2022-11-03T14:22:31.786Z,16.42
2022-11-03T14:24:59.021Z,19.48
2022-11-03T14:27:26.157Z,16.80
2022-11-03T14:29:53.507Z,17.67
2022-11-03T14:32:20.912Z,19.70
2022-11-03T14:34:48.332Z,15.68
2022-11-03T14:37:15.934Z,18.23
2022-11-03T14:39:42.953Z,16.55
2022-11-03T14:42:17.193Z,21.17
2022-11-03T14:44:46.655Z,15.80
2022-11-03T14:47:17.679Z,17.10
2022-11-03T14:49:45.916Z,16.67
2022-11-03T14:52:13.772Z,17.48
2022-11-03T14:54:40.759Z,15.38
2022-11-03T14:57:09.756Z,18.50
2022-11-03T14:59:36.767Z,23.40
2022-11-03T15:02:04.592Z,18.48
2022-11-03T15:04:31.814Z,19.60
2022-11-03T15:06:58.843Z,16.70
2022-11-03T15:09:25.821Z,17.90
2022-11-03T15:27:20.935Z,17.02
2022-11-03T15:29:47.758Z,18.23
2022-11-03T15:32:15.325Z,21.13
2022-11-03T15:34:42.054Z,20.00
2022-11-03T15:37:09.209Z,20.00
2022-11-03T15:39:36.044Z,22.90
2022-11-03T15:42:03.000Z,17.83
2022-11-03T15:44:29.795Z,23.27
2022-11-03T15:46:56.589Z,21.92
2022-11-03T15:49:23.456Z,20.15
2022-11-03T15:51:50.249Z,20.52
2022-11-03T15:54:17.020Z,18.38
2022-11-03T15:56:43.793Z,20.20
2022-11-03T15:59:10.544Z,20.00
2022-11-03T16:01:37.515Z,25.48
2022-11-03T16:04:04.434Z,19.20
2022-11-03T16:09:18.100Z,24.52
2022-11-03T16:11:44.977Z,22.08
2022-11-03T16:14:11.791Z,21.60
2022-11-03T16:16:38.615Z,15.77
2022-11-03T16:19:05.470Z,21.27
2022-11-03T16:21:32.302Z,21.48
2022-11-03T16:23:59.207Z,18.10
2022-11-03T16:26:26.062Z,21.10
2022-11-03T16:28:52.893Z,29.83
2022-11-03T16:31:19.698Z,25.38
2022-11-03T16:33:46.517Z,25.05
2022-11-03T16:36:13.437Z,30.92
2022-11-03T16:38:40.285Z,29.98
2022-11-03T16:41:07.196Z,29.88
2022-11-03T16:43:34.020Z,24.45
2022-11-03T16:46:00.789Z,34.35
2022-11-03T16:48:27.644Z,30.80
2022-11-03T16:51:00.322Z,24.35
2022-11-03T16:53:27.130Z,25.77
2022-11-03T16:55:53.990Z,28.58
2022-11-03T16:58:21.271Z,29.13
2022-11-03T17:00:48.764Z,25.00
2022-11-03T17:03:16.445Z,34.05
2022-11-03T17:05:43.793Z,33.15
2022-11-03T17:08:38.577Z,38.65
2022-11-03T17:10:58.832Z,38.83
2022-11-03T17:13:26.392Z,40.72
2022-11-03T17:15:53.835Z,31.17
2022-11-03T17:18:21.209Z,28.52
2022-11-03T17:20:48.540Z,34.30
2022-11-03T17:23:15.661Z,31.85
2022-11-03T17:25:42.743Z,25.27
2022-11-03T17:28:11.695Z,27.48
2022-11-03T17:30:39.490Z,23.67
2022-11-03T17:33:09.173Z,21.77
2022-11-03T17:35:42.169Z,22.08
2022-11-03T17:38:14.312Z,23.77
2022-11-03T17:40:50.641Z,27.65
2022-11-03T17:43:21.165Z,19.95
2022-11-03T17:45:48.397Z,22.35
2022-11-03T17:48:15.680Z,46.15
2022-11-03T17:50:46.428Z,175.82
2022-11-03T17:53:23.089Z,39.50
2022-11-03T17:56:23.473Z,46.40
2022-11-03T17:58:46.324Z,28.83
2022-11-03T18:01:20.293Z,18.35
2022-11-03T18:03:47.352Z,22.27
2022-11-03T18:06:19.603Z,20.35
2022-11-03T18:08:47.635Z,23.88
2022-11-03T18:11:44.843Z,24.85
2022-11-03T18:14:12.092Z,24.92
2022-11-03T18:16:39.355Z,26.40
2022-11-03T18:19:09.989Z,25.85
2022-11-03T18:21:36.988Z,24.30
2022-11-03T18:24:13.523Z,25.50
2022-11-03T18:26:40.956Z,23.05
2022-11-03T18:31:50.576Z,25.13
2022-11-03T18:34:24.380Z,24.58
2022-11-03T18:36:52.926Z,28.00
2022-11-03T18:39:25.896Z,21.95
2022-11-03T18:41:53.438Z,26.63
2022-11-03T18:44:24.238Z,28.23
2022-11-03T18:46:52.551Z,22.48
2022-11-03T18:49:19.735Z,22.70
2022-11-03T18:52:03.563Z,18.40
2022-11-03T18:54:32.913Z,22.15
2022-11-03T18:57:00.334Z,21.88
2022-11-03T18:59:31.965Z,17.98
2022-11-03T19:01:59.503Z,21.50
2022-11-03T19:04:26.677Z,20.75
2022-11-03T19:06:53.949Z,23.42
2022-11-03T19:09:26.110Z,24.23
2022-11-03T19:11:56.482Z,24.45
2022-11-03T19:14:28.635Z,25.60
2022-11-03T19:19:47.126Z,25.27
2022-11-03T19:22:16.742Z,25.30
2022-11-03T19:24:43.876Z,20.35
2022-11-03T19:27:33.907Z,25.95
2022-11-03T19:30:03.770Z,28.00
2022-11-03T19:32:37.365Z,22.92
2022-11-03T19:35:17.140Z,20.45
2022-11-03T19:37:44.538Z,27.95
2022-11-03T19:40:17.997Z,25.52
2022-11-03T19:42:45.516Z,23.53
2022-11-03T19:45:17.940Z,26.30
2022-11-03T19:50:52.671Z,23.70
2022-11-03T19:53:23.653Z,25.33
2022-11-03T19:55:50.779Z,20.77
2022-11-03T19:58:20.920Z,22.95
2022-11-03T20:00:49.329Z,21.85
2022-11-03T20:03:16.830Z,24.60
2022-11-03T20:05:49.350Z,26.83
2022-11-03T20:08:20.705Z,21.48
2022-11-03T20:10:48.264Z,28.88
2022-11-03T20:13:19.185Z,26.42
2022-11-03T20:15:46.859Z,20.52
2022-11-03T20:18:14.267Z,21.60
2022-11-03T20:20:43.620Z,24.30
2022-11-03T20:23:21.461Z,26.40
2022-11-03T20:25:49.274Z,30.63
2022-11-03T20:28:22.949Z,23.52
2022-11-03T20:30:50.263Z,20.20
2022-11-03T20:33:19.520Z,22.30
2022-11-03T20:35:48.148Z,23.83
2022-11-03T20:38:19.172Z,20.35
2022-11-03T20:40:48.050Z,21.92
2022-11-03T20:43:24.461Z,26.80
2022-11-03T20:45:51.324Z,26.80
2022-11-03T20:48:18.341Z,21.30
2022-11-03T20:50:45.277Z,16.98
2022-11-03T20:53:16.414Z,17.60
2022-11-03T20:55:43.776Z,17.23
2022-11-03T20:58:16.421Z,17.30
2022-11-03T21:00:45.354Z,22.70
2022-11-03T21:03:37.744Z,19.13
2022-11-03T21:06:06.280Z,18.60
2022-11-03T21:08:33.133Z,19.55
2022-11-03T21:11:19.976Z,21.33
2022-11-03T21:13:47.089Z,18.27
2022-11-03T21:16:32.600Z,23.35
2022-11-03T21:19:18.349Z,16.75
2022-11-03T21:21:45.202Z,18.55
2022-11-03T21:24:12.835Z,18.58
2022-11-03T21:26:41.577Z,18.10
2022-11-03T21:29:08.393Z,15.57
2022-11-03T21:31:35.222Z,17.23
2022-11-03T21:34:02.172Z,17.73
2022-11-03T21:36:29.029Z,18.15
2022-11-03T21:38:56.104Z,17.33
2022-11-03T21:41:41.388Z,17.95
2022-11-03T21:44:17.283Z,15.93
2022-11-03T21:46:44.737Z,16.17
2022-11-03T21:49:30.005Z,17.85
2022-11-03T21:51:57.376Z,15.85
2022-11-03T21:54:24.261Z,15.57
2022-11-03T21:56:51.192Z,16.23
2022-11-03T21:59:18.017Z,15.30
2022-11-03T22:01:44.966Z,15.95
2022-11-03T22:04:11.874Z,13.23
2022-11-03T22:06:38.856Z,19.02
2022-11-03T22:09:05.795Z,17.75
2022-11-03T22:11:32.643Z,17.45
2022-11-03T22:14:01.594Z,18.98
2022-11-03T22:16:38.412Z,19.35
2022-11-03T22:19:36.605Z,19.30
2022-11-03T22:22:24.220Z,19.00
2022-11-03T22:25:09.626Z,16.48
2022-11-03T22:27:36.497Z,20.88
2022-11-03T22:30:22.729Z,17.58
2022-11-03T22:32:55.478Z,16.85
2022-11-03T22:35:42.486Z,17.73
2022-11-03T22:38:14.263Z,15.30
2022-11-03T22:41:01.068Z,16.38
2022-11-03T22:43:46.713Z,16.75
2022-11-03T22:46:15.764Z,18.67
2022-11-03T22:48:42.634Z,16.88
2022-11-03T22:51:13.306Z,16.35
2022-11-03T22:53:58.844Z,17.98
2022-11-03T22:56:27.597Z,17.85
2022-11-03T22:58:54.545Z,17.80
2022-11-03T23:01:23.563Z,20.17
2022-11-03T23:03:50.403Z,17.42
2022-11-03T23:06:22.528Z,19.77
2022-11-03T23:08:50.431Z,20.33
2022-11-03T23:11:25.801Z,16.20
2022-11-03T23:13:58.219Z,17.52
2022-11-03T23:16:27.321Z,20.30
2022-11-03T23:19:13.379Z,22.60
2022-11-03T23:21:40.547Z,19.20
2022-11-03T23:24:26.144Z,15.60
2022-11-03T23:26:53.153Z,18.88
2022-11-03T23:29:20.046Z,17.70
2022-11-03T23:31:47.166Z,19.38
2022-11-03T23:34:14.729Z,21.25
2022-11-03T23:36:41.842Z,20.42
2022-11-03T23:39:13.203Z,17.63
2022-11-03T23:41:40.110Z,15.20
2022-11-03T23:44:07.137Z,19.48
2022-11-03T23:46:52.485Z,20.63
2022-11-03T23:49:19.318Z,20.55
2022-11-03T23:51:46.186Z,22.13
2022-11-03T23:54:13.637Z,17.88
2022-11-03T23:57:03.650Z,18.55
2022-11-03T23:59:32.366Z,19.92
